Time;durP1;ratioP1;P1;durP2;ratioP2;P2;SDS_P1;SDS_P2;PMS_P1;PMS_P2;Temp;Humidity;BMP_temperature;BMP_pressure;BME280_temperature;BME280_humidity;BME280_pressure;Samples;Min_cycle;Max_cycle;Signal;HPM_P1;HPM_P2
2022/12/23 00:00:03;;;;;;;;;;;17.70;59.30;;;;;;4952381;28;1230;-68
2022/12/23 00:02:29;;;;;;;;;;;17.70;59.30;;;;;;4951734;28;851;-67
2022/12/23 00:04:54;;;;;;;;;;;17.70;59.30;;;;;;4957462;28;1432;-69
2022/12/23 00:07:20;;;;;;;;;;;17.70;59.30;;;;;;4956006;28;987;-69
2022/12/23 00:09:45;;;;;;;;;;;17.70;59.30;;;;;;4957975;28;1364;-69
2022/12/23 00:15:04;;;;;;;;;;;17.70;59.40;;;;;;4954414;28;1956;-69
2022/12/23 00:17:30;;;;;;;;;;;17.70;59.40;;;;;;4955637;28;931;-69
2022/12/23 00:19:55;;;;;;;;;;;17.70;59.40;;;;;;4954611;28;1281;-69
2022/12/23 00:23:03;;;;;;;;;;;17.70;59.40;;;;;;4955356;28;835;-69
2022/12/23 00:25:06;;;;;;;;;;;17.70;59.40;;;;;;4954546;28;1081;-69
2022/12/23 00:27:32;;;;;;;;;;;17.70;59.40;;;;;;4954327;28;857;-69
2022/12/23 00:29:57;;;;;;;;;;;17.70;59.40;;;;;;4955618;28;1350;-69
2022/12/23 00:32:23;;;;;;;;;;;17.70;59.40;;;;;;4957081;28;1705;-69
2022/12/23 00:34:48;;;;;;;;;;;17.70;59.40;;;;;;4957011;28;1906;-70
2022/12/23 00:37:13;;;;;;;;;;;17.70;59.40;;;;;;4953366;28;907;-69
2022/12/23 00:45:16;;;;;;;;;;;17.70;59.40;;;;;;4954311;28;749;-70
2022/12/23 00:50:26;;;;;;;;;;;17.70;59.40;;;;;;4954010;28;1289;-70
2022/12/23 00:52:52;;;;;;;;;;;17.70;59.40;;;;;;4952795;28;1902;-70
2022/12/23 00:55:17;;;;;;;;;;;17.70;59.40;;;;;;4950559;28;1078;-71
2022/12/23 00:57:43;;;;;;;;;;;17.70;59.40;;;;;;4952563;28;907;-71
2022/12/23 01:00:08;;;;;;;;;;;17.70;59.40;;;;;;4946424;28;1384;-69
2022/12/23 01:05:36;;;;;;;;;;;17.70;59.50;;;;;;4953332;28;1245;-69
2022/12/23 01:08:06;;;;;;;;;;;17.70;59.50;;;;;;4953425;28;938;-69
2022/12/23 01:10:33;;;;;;;;;;;17.70;59.50;;;;;;4952809;28;1332;-69
2022/12/23 01:12:58;;;;;;;;;;;17.70;59.50;;;;;;4952472;28;1923;-69
2022/12/23 01:15:24;;;;;;;;;;;17.70;59.50;;;;;;4952693;28;1302;-69
2022/12/23 01:17:49;;;;;;;;;;;17.70;59.50;;;;;;4953261;28;879;-69
2022/12/23 01:20:15;;;;;;;;;;;17.70;59.50;;;;;;4951179;28;1364;-69
2022/12/23 01:22:40;;;;;;;;;;;17.70;59.50;;;;;;4953805;28;1042;-69
2022/12/23 01:25:06;;;;;;;;;;;17.70;60.10;;;;;;4952638;28;863;-69
2022/12/23 01:27:31;;;;;;;;;;;17.70;59.50;;;;;;4957132;28;858;-69
2022/12/23 01:29:57;;;;;;;;;;;17.70;59.50;;;;;;4954295;28;1350;-69
2022/12/23 01:32:22;;;;;;;;;;;17.70;59.50;;;;;;4951685;28;805;-68
2022/12/23 01:34:48;;;;;;;;;;;17.70;59.50;;;;;;4954017;28;1966;-69
2022/12/23 01:37:13;;;;;;;;;;;17.60;59.50;;;;;;4953510;28;909;-70
2022/12/23 01:39:39;;;;;;;;;;;17.70;59.50;;;;;;4949945;28;1381;-70
2022/12/23 01:44:56;;;;;;;;;;;17.70;59.60;;;;;;4954272;28;695;-69
2022/12/23 01:47:35;;;;;;;;;;;17.70;59.50;;;;;;4951776;28;816;-69
2022/12/23 01:50:18;;;;;;;;;;;17.60;59.50;;;;;;4954757;28;1290;-69
2022/12/23 01:53:02;;;;;;;;;;;17.70;59.60;;;;;;4953551;28;1975;-69
2022/12/23 01:55:29;;;;;;;;;;;17.60;59.50;;;;;;4949561;28;983;-70
2022/12/23 01:57:55;;;;;;;;;;;17.60;59.50;;;;;;4962882;28;1472;-69
2022/12/23 02:05:49;;;;;;;;;;;17.60;59.50;;;;;;4952999;28;1280;-69
2022/12/23 02:11:05;;;;;;;;;;;17.60;59.60;;;;;;4950359;28;1389;-69
2022/12/23 02:13:34;;;;;;;;;;;17.60;59.60;;;;;;4952590;28;1906;-69
2022/12/23 02:16:17;;;;;;;;;;;17.60;59.60;;;;;;4954347;28;1460;-70
2022/12/23 02:19:02;;;;;;;;;;;17.60;59.60;;;;;;4949423;28;978;-67
2022/12/23 02:21:37;;;;;;;;;;;17.60;59.60;;;;;;4949720;28;1322;-70
2022/12/23 02:24:21;;;;;;;;;;;17.60;59.70;;;;;;4952125;28;809;-69
2022/12/23 02:27:05;;;;;;;;;;;17.60;59.60;;;;;;4952990;28;881;-69
2022/12/23 02:29:49;;;;;;;;;;;17.60;59.60;;;;;;4956422;28;1260;-69
2022/12/23 02:32:20;;;;;;;;;;;17.60;59.70;;;;;;4952906;28;1350;-69
2022/12/23 02:34:59;;;;;;;;;;;17.60;59.60;;;;;;4950267;28;1973;-70
2022/12/23 02:37:49;;;;;;;;;;;17.60;59.60;;;;;;4947643;28;1038;-69
2022/12/23 02:40:47;;;;;;;;;;;17.60;59.70;;;;;;4951081;28;1332;-70
2022/12/23 02:43:12;;;;;;;;;;;17.60;59.70;;;;;;4942843;28;1375;-69
2022/12/23 02:45:45;;;;;;;;;;;17.60;59.70;;;;;;4950168;29;1401;-68
2022/12/23 02:48:31;;;;;;;;;;;17.60;59.70;;;;;;4927396;28;1292;-69
2022/12/23 02:50:56;;;;;;;;;;;17.60;59.70;;;;;;4951752;28;1301;-69
2022/12/23 02:53:32;;;;;;;;;;;17.60;59.70;;;;;;4950439;28;1978;-68
2022/12/23 02:55:58;;;;;;;;;;;17.60;59.70;;;;;;4950303;28;907;-68
2022/12/23 02:58:25;;;;;;;;;;;17.60;59.70;;;;;;4928611;29;1421;-69
2022/12/23 03:00:50;;;;;;;;;;;17.60;59.70;;;;;;4948189;28;1336;-70
2022/12/23 03:03:16;;;;;;;;;;;17.60;59.70;;;;;;4955259;28;1073;-69
2022/12/23 03:05:42;;;;;;;;;;;17.60;59.70;;;;;;4951362;28;826;-69
2022/12/23 03:08:15;;;;;;;;;;;17.60;59.70;;;;;;4954002;28;1142;-69
2022/12/23 03:10:59;;;;;;;;;;;17.60;59.70;;;;;;4955717;28;1717;-69
2022/12/23 03:13:33;;;;;;;;;;;17.60;59.70;;;;;;4953824;28;1890;-70
2022/12/23 03:16:05;;;;;;;;;;;17.60;59.70;;;;;;4948713;28;974;-68
2022/12/23 03:18:50;;;;;;;;;;;17.60;59.70;;;;;;4951449;28;808;-69
2022/12/23 03:21:18;;;;;;;;;;;17.60;59.70;;;;;;4956479;28;1404;-69
2022/12/23 03:23:48;;;;;;;;;;;17.60;59.70;;;;;;4954967;28;1171;-69
2022/12/23 03:26:20;;;;;;;;;;;17.60;59.80;;;;;;4970320;28;1165;-69
2022/12/23 03:28:50;;;;;;;;;;;17.60;59.70;;;;;;4958109;28;935;-69
2022/12/23 03:31:17;;;;;;;;;;;17.60;59.80;;;;;;4952085;29;1280;-69
2022/12/23 03:33:43;;;;;;;;;;;17.60;59.80;;;;;;4955260;28;1911;-69
2022/12/23 03:36:11;;;;;;;;;;;17.60;59.80;;;;;;4930401;28;1358;-69
2022/12/23 03:38:36;;;;;;;;;;;17.60;59.80;;;;;;4948570;28;1364;-69
2022/12/23 03:41:04;;;;;;;;;;;17.60;59.80;;;;;;4954828;28;1392;-70
2022/12/23 03:43:31;;;;;;;;;;;17.60;59.80;;;;;;4959147;28;1036;-69
2022/12/23 03:45:58;;;;;;;;;;;17.60;59.80;;;;;;4954348;28;898;-69
2022/12/23 03:48:44;;;;;;;;;;;17.60;59.80;;;;;;4954847;28;842;-69
2022/12/23 03:51:14;;;;;;;;;;;17.60;59.80;;;;;;4952203;28;1296;-69
2022/12/23 03:53:41;;;;;;;;;;;17.60;59.80;;;;;;4954539;28;1961;-69
2022/12/23 03:56:08;;;;;;;;;;;17.60;59.80;;;;;;4954524;28;1073;-69
2022/12/23 03:58:36;;;;;;;;;;;17.60;59.80;;;;;;4954561;28;958;-69
2022/12/23 04:01:10;;;;;;;;;;;17.60;59.90;;;;;;4952815;28;1411;-69
2022/12/23 04:03:36;;;;;;;;;;;17.60;59.80;;;;;;4954238;28;1065;-69
2022/12/23 04:06:03;;;;;;;;;;;17.60;59.80;;;;;;4953767;28;868;-69
2022/12/23 04:08:30;;;;;;;;;;;17.60;59.80;;;;;;4954892;28;1037;-69
2022/12/23 04:10:56;;;;;;;;;;;17.50;59.80;;;;;;4950053;28;1266;-69
2022/12/23 04:13:21;;;;;;;;;;;17.60;59.80;;;;;;4936773;28;1895;-69
2022/12/23 04:15:46;;;;;;;;;;;17.60;59.80;;;;;;4954084;28;1339;-69
2022/12/23 04:18:12;;;;;;;;;;;17.60;59.80;;;;;;4955412;28;943;-69
2022/12/23 04:20:37;;;;;;;;;;;17.60;59.90;;;;;;4956421;28;1267;-69
2022/12/23 04:23:03;;;;;;;;;;;17.50;59.80;;;;;;4946613;28;1464;-69
2022/12/23 04:25:28;;;;;;;;;;;17.60;59.90;;;;;;4953281;28;1363;-69
2022/12/23 04:27:54;;;;;;;;;;;17.60;59.90;;;;;;4954444;28;872;-68
2022/12/23 04:30:19;;;;;;;;;;;17.60;59.90;;;;;;4963664;28;1283;-68
2022/12/23 04:32:45;;;;;;;;;;;17.60;59.90;;;;;;4952238;28;2116;-68
2022/12/23 04:35:10;;;;;;;;;;;17.50;59.80;;;;;;4954999;28;1041;-69
2022/12/23 04:37:36;;;;;;;;;;;17.50;59.80;;;;;;4935967;29;906;-69
2022/12/23 04:40:01;;;;;;;;;;;17.50;59.80;;;;;;4953052;28;1356;-69
2022/12/23 04:42:27;;;;;;;;;;;17.50;59.80;;;;;;4954387;28;927;-69
2022/12/23 04:44:52;;;;;;;;;;;17.50;59.80;;;;;;4953886;28;1015;-69
2022/12/23 04:47:18;;;;;;;;;;;17.50;59.80;;;;;;4953357;28;847;-68
2022/12/23 04:49:43;;;;;;;;;;;17.50;59.90;;;;;;4951070;28;1269;-68
2022/12/23 04:52:09;;;;;;;;;;;17.50;59.90;;;;;;4951806;28;798;-69
2022/12/23 04:54:34;;;;;;;;;;;17.50;59.80;;;;;;4950018;28;1948;-69
2022/12/23 04:57:00;;;;;;;;;;;17.50;59.80;;;;;;4946195;28;904;-69
2022/12/23 04:59:25;;;;;;;;;;;17.50;59.90;;;;;;4950203;28;1221;-69
2022/12/23 05:01:50;;;;;;;;;;;17.50;59.90;;;;;;4956465;28;934;-68
2022/12/23 05:04:16;;;;;;;;;;;17.50;59.90;;;;;;4956666;28;1302;-68
2022/12/23 05:06:41;;;;;;;;;;;17.50;59.90;;;;;;4948337;28;884;-71
2022/12/23 05:09:07;;;;;;;;;;;17.50;59.90;;;;;;4954282;28;1284;-69
2022/12/23 05:11:32;;;;;;;;;;;17.50;59.90;;;;;;4954209;28;844;-69
2022/12/23 05:13:58;;;;;;;;;;;17.50;59.80;;;;;;4951101;28;1965;-69
2022/12/23 05:16:23;;;;;;;;;;;17.60;59.90;;;;;;4955196;28;1249;-69
2022/12/23 05:18:49;;;;;;;;;;;17.60;59.80;;;;;;4953311;28;835;-68
2022/12/23 05:21:14;;;;;;;;;;;17.60;59.80;;;;;;4953127;28;1260;-68
2022/12/23 05:23:40;;;;;;;;;;;17.60;59.70;;;;;;4956240;28;852;-68
2022/12/23 05:26:05;;;;;;;;;;;17.60;59.70;;;;;;4960165;28;780;-69
2022/12/23 05:28:31;;;;;;;;;;;17.70;59.70;;;;;;4945401;28;931;-69
2022/12/23 05:31:00;;;;;;;;;;;17.70;59.60;;;;;;4954712;28;1254;-69
2022/12/23 05:33:25;;;;;;;;;;;17.70;59.50;;;;;;4950968;28;1960;-69
2022/12/23 05:35:51;;;;;;;;;;;17.70;59.40;;;;;;4952416;28;852;-69
2022/12/23 05:38:16;;;;;;;;;;;17.70;59.40;;;;;;4953242;28;1320;-69
2022/12/23 05:40:42;;;;;;;;;;;17.80;59.40;;;;;;4955573;28;1261;-69
2022/12/23 05:43:07;;;;;;;;;;;17.80;59.30;;;;;;4966381;28;1265;-69
2022/12/23 05:45:35;;;;;;;;;;;17.80;59.20;;;;;;4953404;28;863;-69
2022/12/23 05:48:01;;;;;;;;;;;17.80;59.20;;;;;;4953251;28;805;-68
2022/12/23 05:50:26;;;;;;;;;;;17.80;59.10;;;;;;4952026;28;1264;-68
2022/12/23 05:52:54;;;;;;;;;;;17.80;59.10;;;;;;4949971;28;1895;-68
2022/12/23 05:55:20;;;;;;;;;;;17.90;59.10;;;;;;4953439;28;846;-68
2022/12/23 05:57:45;;;;;;;;;;;17.90;59.10;;;;;;4950428;28;1255;-68
2022/12/23 06:00:11;;;;;;;;;;;17.90;59.10;;;;;;4950935;28;1254;-68
2022/12/23 06:02:37;;;;;;;;;;;17.90;59.00;;;;;;4952187;28;952;-68
2022/12/23 06:05:02;;;;;;;;;;;17.90;59.00;;;;;;4957417;28;1007;-68
2022/12/23 06:07:28;;;;;;;;;;;17.90;59.00;;;;;;4949207;28;1284;-68
2022/12/23 06:09:53;;;;;;;;;;;17.90;58.90;;;;;;4951341;28;1262;-68
2022/12/23 06:12:18;;;;;;;;;;;17.90;58.90;;;;;;4949638;28;892;-68
2022/12/23 06:14:44;;;;;;;;;;;18.00;58.90;;;;;;4953683;28;2001;-68
2022/12/23 06:17:09;;;;;;;;;;;17.90;58.90;;;;;;4953715;28;1084;-68
2022/12/23 06:19:35;;;;;;;;;;;17.90;58.80;;;;;;4959223;28;1274;-68
2022/12/23 06:22:00;;;;;;;;;;;17.90;58.80;;;;;;4962473;28;856;-69
2022/12/23 06:24:26;;;;;;;;;;;17.90;58.80;;;;;;4961965;28;1499;-68
2022/12/23 06:26:51;;;;;;;;;;;17.90;58.80;;;;;;4957348;28;1027;-69
2022/12/23 06:29:17;;;;;;;;;;;18.00;58.80;;;;;;4948885;28;1501;-68
2022/12/23 06:31:42;;;;;;;;;;;18.00;58.80;;;;;;4950925;28;1424;-69
2022/12/23 06:34:07;;;;;;;;;;;18.00;58.80;;;;;;4950374;28;1915;-68
2022/12/23 06:36:33;;;;;;;;;;;18.00;58.80;;;;;;4952486;28;813;-68
2022/12/23 06:38:58;;;;;;;;;;;18.00;58.80;;;;;;4952251;28;1451;-68
2022/12/23 06:41:24;;;;;;;;;;;18.00;58.70;;;;;;4948159;28;1979;-69
2022/12/23 06:43:49;;;;;;;;;;;18.00;58.70;;;;;;4956035;28;1010;-69
2022/12/23 06:46:15;;;;;;;;;;;18.00;58.70;;;;;;4952697;28;1427;-71
2022/12/23 06:48:40;;;;;;;;;;;18.00;58.70;;;;;;4948698;28;872;-72
2022/12/23 06:51:06;;;;;;;;;;;18.00;58.70;;;;;;4951723;28;1367;-70
2022/12/23 06:53:31;;;;;;;;;;;18.00;58.70;;;;;;4952699;28;1902;-72
2022/12/23 06:56:00;;;;;;;;;;;18.00;58.70;;;;;;4955428;28;840;-71
2022/12/23 06:58:25;;;;;;;;;;;18.00;58.70;;;;;;4954539;29;963;-71
2022/12/23 07:00:51;;;;;;;;;;;18.00;58.70;;;;;;4952675;29;1267;-70
2022/12/23 07:03:16;;;;;;;;;;;18.00;58.70;;;;;;4957445;28;1324;-70
2022/12/23 07:05:45;;;;;;;;;;;18.00;58.70;;;;;;4959159;28;801;-70
2022/12/23 07:08:11;;;;;;;;;;;18.00;58.70;;;;;;4957344;28;1221;-69
2022/12/23 07:10:36;;;;;;;;;;;18.00;58.70;;;;;;4954117;28;1264;-68
2022/12/23 07:13:02;;;;;;;;;;;18.00;58.70;;;;;;4957184;28;1946;-69
2022/12/23 07:15:27;;;;;;;;;;;18.00;58.70;;;;;;4965422;28;1327;-68
2022/12/23 07:17:53;;;;;;;;;;;18.00;58.60;;;;;;4958156;28;1185;-69
2022/12/23 07:20:18;;;;;;;;;;;18.00;58.60;;;;;;4940208;28;4756;-69
2022/12/23 07:22:44;;;;;;;;;;;18.00;58.70;;;;;;4960269;28;915;-69
2022/12/23 07:25:10;;;;;;;;;;;18.00;58.60;;;;;;4964415;28;1198;-69
2022/12/23 07:27:35;;;;;;;;;;;18.00;58.70;;;;;;4936245;29;912;-69
2022/12/23 07:30:01;;;;;;;;;;;18.00;58.70;;;;;;4955514;28;1258;-69
2022/12/23 07:32:26;;;;;;;;;;;18.00;58.70;;;;;;4958155;28;1042;-69
2022/12/23 07:34:51;;;;;;;;;;;18.00;58.70;;;;;;4958588;28;1991;-69
2022/12/23 07:37:17;;;;;;;;;;;18.00;58.70;;;;;;4952068;28;1597;-68
2022/12/23 07:39:42;;;;;;;;;;;18.00;58.70;;;;;;4953340;28;1318;-69
2022/12/23 07:42:08;;;;;;;;;;;18.00;58.70;;;;;;4957575;28;1228;-68
2022/12/23 07:44:33;;;;;;;;;;;18.00;58.70;;;;;;4954621;28;800;-69
2022/12/23 07:47:00;;;;;;;;;;;18.00;58.70;;;;;;4954920;28;1275;-68
2022/12/23 07:49:25;;;;;;;;;;;18.00;58.70;;;;;;4952932;28;1248;-68
2022/12/23 07:51:50;;;;;;;;;;;18.00;58.70;;;;;;4954043;28;915;-68
2022/12/23 07:54:16;;;;;;;;;;;18.00;58.70;;;;;;4956050;28;1903;-69
2022/12/23 07:56:41;;;;;;;;;;;18.00;58.70;;;;;;4954537;28;876;-71
2022/12/23 07:59:07;;;;;;;;;;;18.00;58.70;;;;;;4955000;28;1250;-70
2022/12/23 08:01:32;;;;;;;;;;;18.00;58.70;;;;;;4954586;28;813;-71
2022/12/23 08:03:58;;;;;;;;;;;18.00;58.70;;;;;;4956317;28;1455;-71
2022/12/23 08:06:23;;;;;;;;;;;18.00;58.70;;;;;;4953472;28;906;-71
2022/12/23 08:08:49;;;;;;;;;;;18.00;58.70;;;;;;4956212;28;919;-70
2022/12/23 08:11:14;;;;;;;;;;;18.00;58.70;;;;;;4955732;28;1273;-71
2022/12/23 08:13:42;;;;;;;;;;;18.00;58.70;;;;;;4954058;28;1950;-70
2022/12/23 08:16:07;;;;;;;;;;;18.00;58.70;;;;;;4953353;28;1359;-70
2022/12/23 08:18:33;;;;;;;;;;;18.00;58.70;;;;;;4954387;28;852;-70
2022/12/23 08:21:00;;;;;;;;;;;18.00;58.70;;;;;;4953570;28;1347;-72
2022/12/23 08:23:25;;;;;;;;;;;18.00;58.70;;;;;;4955138;28;951;-69
2022/12/23 08:26:11;;;;;;;;;;;18.00;58.70;;;;;;4953222;28;869;-69
2022/12/23 08:28:37;;;;;;;;;;;18.00;58.70;;;;;;4952955;28;1184;-69
2022/12/23 08:31:06;;;;;;;;;;;18.00;58.70;;;;;;4951256;28;1246;-70
2022/12/23 08:33:32;;;;;;;;;;;18.00;58.70;;;;;;4955339;28;1895;-69
2022/12/23 08:35:58;;;;;;;;;;;18.00;58.70;;;;;;4936906;28;1281;-70
2022/12/23 08:38:23;;;;;;;;;;;18.00;58.70;;;;;;4953871;28;1280;-70
2022/12/23 08:40:48;;;;;;;;;;;18.00;58.70;;;;;;4956252;28;1248;-70
2022/12/23 08:43:14;;;;;;;;;;;18.00;58.70;;;;;;4956531;28;914;-70
2022/12/23 08:45:39;;;;;;;;;;;18.00;58.80;;;;;;4951806;28;899;-70
2022/12/23 08:48:05;;;;;;;;;;;18.00;58.80;;;;;;4953239;28;959;-71
2022/12/23 08:50:35;;;;;;;;;;;18.00;58.70;;;;;;4955271;28;1266;-70
2022/12/23 08:53:00;;;;;;;;;;;18.00;58.80;;;;;;4954588;28;1902;-69
2022/12/23 08:55:26;;;;;;;;;;;18.00;58.70;;;;;;4952417;28;867;-70
2022/12/23 08:57:51;;;;;;;;;;;18.00;58.80;;;;;;4954008;28;998;-70
2022/12/23 09:00:17;;;;;;;;;;;18.00;58.70;;;;;;4954219;28;1355;-70
2022/12/23 09:02:42;;;;;;;;;;;18.00;58.70;;;;;;4953787;28;854;-71
2022/12/23 09:05:08;;;;;;;;;;;18.00;58.70;;;;;;4955825;28;1281;-70
2022/12/23 09:07:33;;;;;;;;;;;18.00;58.70;;;;;;4953546;28;1070;-70
2022/12/23 09:09:59;;;;;;;;;;;18.00;58.70;;;;;;4953902;28;1276;-70
2022/12/23 09:12:24;;;;;;;;;;;18.00;58.70;;;;;;4954026;28;859;-71
2022/12/23 09:14:49;;;;;;;;;;;18.00;58.70;;;;;;4956925;28;1969;-70
2022/12/23 09:17:16;;;;;;;;;;;18.00;58.70;;;;;;4955249;28;820;-71
2022/12/23 09:19:41;;;;;;;;;;;18.00;58.70;;;;;;4951184;28;1423;-71
2022/12/23 09:22:08;;;;;;;;;;;18.00;58.70;;;;;;4953373;28;1187;-71
2022/12/23 09:24:34;;;;;;;;;;;18.00;58.70;;;;;;4953148;28;919;-71
2022/12/23 09:26:59;;;;;;;;;;;18.10;58.80;;;;;;4952539;28;880;-72
2022/12/23 09:29:25;;;;;;;;;;;18.00;58.70;;;;;;4953945;28;1388;-71
2022/12/23 09:31:50;;;;;;;;;;;18.00;58.70;;;;;;4954649;28;1207;-71
2022/12/23 09:34:16;;;;;;;;;;;18.00;58.70;;;;;;4952497;28;1970;-71
2022/12/23 09:36:41;;;;;;;;;;;18.10;58.80;;;;;;4952359;28;873;-70
2022/12/23 09:39:08;;;;;;;;;;;18.10;58.80;;;;;;4955699;28;1426;-70
2022/12/23 09:41:52;;;;;;;;;;;18.00;58.70;;;;;;4936722;28;1421;-70
2022/12/23 09:44:28;;;;;;;;;;;18.10;58.70;;;;;;4951480;29;855;-70
2022/12/23 09:46:53;;;;;;;;;;;18.10;58.70;;;;;;4949055;28;845;-70
2022/12/23 09:49:19;;;;;;;;;;;18.00;58.70;;;;;;4950708;28;1387;-70
2022/12/23 09:51:44;;;;;;;;;;;18.10;58.70;;;;;;4952296;28;948;-70
2022/12/23 09:54:13;;;;;;;;;;;18.10;58.70;;;;;;4946468;28;1972;-70
2022/12/23 09:56:40;;;;;;;;;;;18.10;58.70;;;;;;4951172;28;891;-71
2022/12/23 09:59:24;;;;;;;;;;;18.10;58.80;;;;;;4949143;28;1339;-70
2022/12/23 10:02:00;;;;;;;;;;;18.10;58.70;;;;;;4951140;28;957;-70
2022/12/23 10:04:33;;;;;;;;;;;18.10;58.70;;;;;;4950392;28;1421;-70
2022/12/23 10:07:08;;;;;;;;;;;18.10;58.70;;;;;;4951639;28;840;-71
2022/12/23 10:09:36;;;;;;;;;;;18.10;58.70;;;;;;4955399;28;1384;-70
2022/12/23 10:12:02;;;;;;;;;;;18.10;58.70;;;;;;4954872;28;834;-71
2022/12/23 10:14:30;;;;;;;;;;;18.10;58.70;;;;;;4950197;28;1962;-70
2022/12/23 10:17:00;;;;;;;;;;;18.10;58.70;;;;;;4952527;28;888;-70
2022/12/23 10:19:26;;;;;;;;;;;18.10;58.70;;;;;;4952622;28;1265;-71
2022/12/23 10:21:53;;;;;;;;;;;18.10;58.70;;;;;;4955319;28;988;-71
2022/12/23 10:24:19;;;;;;;;;;;18.10;58.70;;;;;;4950888;29;947;-71
2022/12/23 10:26:44;;;;;;;;;;;18.10;58.70;;;;;;4952186;28;865;-71
2022/12/23 10:29:14;;;;;;;;;;;18.10;58.70;;;;;;4953435;28;1374;-71
2022/12/23 10:31:43;;;;;;;;;;;18.10;58.70;;;;;;4954950;28;850;-71
2022/12/23 10:34:32;;;;;;;;;;;18.10;58.70;;;;;;4953485;28;1911;-70
2022/12/23 10:37:02;;;;;;;;;;;18.10;58.70;;;;;;4947845;28;1130;-70
2022/12/23 10:39:40;;;;;;;;;;;18.10;58.70;;;;;;4950254;28;1360;-71
2022/12/23 10:42:07;;;;;;;;;;;18.10;58.70;;;;;;4950716;28;820;-70
2022/12/23 10:44:36;;;;;;;;;;;18.10;58.70;;;;;;4950640;28;1035;-70
2022/12/23 10:47:06;;;;;;;;;;;18.10;58.70;;;;;;4953968;28;967;-70
2022/12/23 10:49:50;;;;;;;;;;;18.10;58.70;;;;;;4950724;28;1863;-71
2022/12/23 10:52:19;;;;;;;;;;;18.10;58.80;;;;;;4952180;28;832;-71
2022/12/23 10:54:45;;;;;;;;;;;18.10;58.80;;;;;;4950190;29;1958;-71
2022/12/23 10:57:10;;;;;;;;;;;18.10;58.70;;;;;;4952595;28;1011;-71
2022/12/23 10:59:36;;;;;;;;;;;18.10;58.70;;;;;;4948503;28;1374;-70
2022/12/23 11:02:11;;;;;;;;;;;18.20;58.70;;;;;;4944599;28;1320;-70
2022/12/23 11:04:40;;;;;;;;;;;18.10;58.60;;;;;;4949249;28;1524;-71
2022/12/23 11:07:06;;;;;;;;;;;18.10;58.60;;;;;;4951593;28;942;-71
2022/12/23 11:09:36;;;;;;;;;;;18.10;58.70;;;;;;4952610;28;1276;-70
2022/12/23 11:12:02;;;;;;;;;;;18.20;58.70;;;;;;4951662;28;811;-71
2022/12/23 11:14:37;;;;;;;;;;;18.10;58.60;;;;;;4951292;28;1962;-70
2022/12/23 11:17:03;;;;;;;;;;;18.10;58.60;;;;;;4951260;28;1346;-71
2022/12/23 11:19:28;;;;;;;;;;;18.20;58.70;;;;;;4948652;28;1294;-71
2022/12/23 11:21:57;;;;;;;;;;;18.10;58.60;;;;;;4950562;28;969;-71
2022/12/23 11:24:23;;;;;;;;;;;18.10;58.60;;;;;;4952436;28;793;-70
2022/12/23 11:26:49;;;;;;;;;;;18.10;58.60;;;;;;4949498;28;919;-71
2022/12/23 11:29:18;;;;;;;;;;;18.10;58.60;;;;;;4947779;28;1375;-72
2022/12/23 11:31:44;;;;;;;;;;;18.20;58.90;;;;;;4951421;28;813;-71
2022/12/23 11:34:16;;;;;;;;;;;18.20;58.80;;;;;;4951718;28;1972;-71
2022/12/23 11:36:41;;;;;;;;;;;18.20;58.70;;;;;;4952039;28;1422;-71
2022/12/23 11:39:19;;;;;;;;;;;18.20;58.70;;;;;;4949110;28;1383;-70
2022/12/23 11:41:48;;;;;;;;;;;18.20;58.70;;;;;;4953090;28;1355;-70
2022/12/23 11:44:16;;;;;;;;;;;18.20;58.70;;;;;;4946359;28;899;-70
2022/12/23 11:46:42;;;;;;;;;;;18.20;58.70;;;;;;4956157;28;808;-70
2022/12/23 11:49:13;;;;;;;;;;;18.20;58.70;;;;;;4955715;28;1270;-70
2022/12/23 11:51:39;;;;;;;;;;;18.20;58.70;;;;;;4957600;28;1046;-71
2022/12/23 11:54:04;;;;;;;;;;;18.20;58.70;;;;;;4953544;28;2036;-70
2022/12/23 11:56:36;;;;;;;;;;;18.20;58.70;;;;;;4953090;28;884;-70
2022/12/23 11:59:04;;;;;;;;;;;18.20;58.60;;;;;;4952387;28;862;-70
2022/12/23 12:01:29;;;;;;;;;;;18.20;58.70;;;;;;4949392;28;1199;-70
2022/12/23 12:04:05;;;;;;;;;;;18.20;58.60;;;;;;4954191;28;1396;-70
2022/12/23 12:06:31;;;;;;;;;;;18.20;58.70;;;;;;4952845;28;1014;-71
2022/12/23 12:08:57;;;;;;;;;;;18.20;58.60;;;;;;4953209;28;918;-70
2022/12/23 12:11:32;;;;;;;;;;;18.20;58.60;;;;;;4956934;28;1302;-70
2022/12/23 12:13:58;;;;;;;;;;;18.20;58.60;;;;;;4954875;28;1911;-70
2022/12/23 12:16:31;;;;;;;;;;;18.20;58.60;;;;;;4952275;28;879;-71
2022/12/23 12:18:59;;;;;;;;;;;18.20;58.60;;;;;;4947093;28;1034;-70
2022/12/23 12:21:26;;;;;;;;;;;18.20;58.60;;;;;;4951645;28;1271;-70
2022/12/23 12:23:53;;;;;;;;;;;18.20;58.60;;;;;;4956118;28;920;-71
2022/12/23 12:26:26;;;;;;;;;;;18.20;58.60;;;;;;4959501;28;818;-71
2022/12/23 12:29:10;;;;;;;;;;;18.20;58.60;;;;;;4953157;28;904;-70
2022/12/23 12:31:39;;;;;;;;;;;18.20;58.60;;;;;;4955741;28;1146;-71
2022/12/23 12:34:11;;;;;;;;;;;18.20;58.60;;;;;;4954843;28;1911;-71
2022/12/23 12:36:40;;;;;;;;;;;18.20;58.50;;;;;;4955613;28;872;-70
2022/12/23 12:39:07;;;;;;;;;;;18.20;58.60;;;;;;4954217;28;1396;-70
2022/12/23 12:41:38;;;;;;;;;;;18.20;58.60;;;;;;4952964;28;803;-70
2022/12/23 12:44:04;;;;;;;;;;;18.20;58.60;;;;;;4951852;28;1228;-70
2022/12/23 12:46:30;;;;;;;;;;;18.20;58.60;;;;;;4953844;28;1047;-72
2022/12/23 12:48:58;;;;;;;;;;;18.20;58.60;;;;;;4951518;28;2233;-70
2022/12/23 12:51:30;;;;;;;;;;;18.20;58.60;;;;;;4950945;28;1355;-70
2022/12/23 12:54:00;;;;;;;;;;;18.20;58.60;;;;;;4954209;28;1910;-70
2022/12/23 12:56:29;;;;;;;;;;;18.20;58.60;;;;;;4953426;28;1459;-69
2022/12/23 12:58:54;;;;;;;;;;;18.20;58.60;;;;;;4951180;28;1466;-70
2022/12/23 13:01:23;;;;;;;;;;;18.20;58.60;;;;;;4953956;28;1460;-71
2022/12/23 13:03:54;;;;;;;;;;;18.20;58.60;;;;;;4970796;28;1228;-70
2022/12/23 13:06:25;;;;;;;;;;;18.20;58.60;;;;;;4954628;28;888;-71
2022/12/23 13:08:54;;;;;;;;;;;18.20;58.70;;;;;;4954300;28;1011;-71
2022/12/23 13:11:26;;;;;;;;;;;18.20;58.70;;;;;;4952477;28;1262;-71
2022/12/23 13:14:02;;;;;;;;;;;18.20;58.70;;;;;;4952923;28;1972;-72
2022/12/23 13:16:32;;;;;;;;;;;18.20;58.70;;;;;;4951978;28;1298;-71
2022/12/23 13:19:16;;;;;;;;;;;18.20;58.70;;;;;;4947481;28;1726;-69
2022/12/23 13:21:45;;;;;;;;;;;18.20;58.70;;;;;;4951776;28;1595;-70
2022/12/23 13:24:19;;;;;;;;;;;18.10;58.70;;;;;;4952857;28;900;-70
2022/12/23 13:26:57;;;;;;;;;;;18.10;58.70;;;;;;4954036;28;916;-74
2022/12/23 13:29:27;;;;;;;;;;;18.10;58.70;;;;;;4955151;28;1365;-70
2022/12/23 13:32:04;;;;;;;;;;;18.10;58.80;;;;;;4952577;28;1223;-69
2022/12/23 13:34:46;;;;;;;;;;;18.10;58.80;;;;;;4955878;28;1915;-72
2022/12/23 13:37:37;;;;;;;;;;;18.10;58.80;;;;;;4952015;28;900;-73
2022/12/23 13:40:12;;;;;;;;;;;18.10;58.80;;;;;;4944578;28;1370;-73
2022/12/23 13:42:41;;;;;;;;;;;18.10;58.80;;;;;;4954877;28;2109;-73
2022/12/23 13:45:14;;;;;;;;;;;18.10;58.90;;;;;;4955895;28;1295;-71
2022/12/23 13:47:58;;;;;;;;;;;18.10;58.90;;;;;;4950600;28;1374;-70
2022/12/23 13:50:34;;;;;;;;;;;18.10;58.90;;;;;;4950274;28;1302;-70
2022/12/23 13:53:00;;;;;;;;;;;18.10;58.90;;;;;;4953151;28;864;-69
2022/12/23 13:55:25;;;;;;;;;;;18.00;58.90;;;;;;4955553;28;1961;-70
2022/12/23 13:57:51;;;;;;;;;;;18.10;58.90;;;;;;4951133;28;1233;-70
2022/12/23 14:00:16;;;;;;;;;;;18.00;58.90;;;;;;4950651;28;1245;-70
2022/12/23 14:02:51;;;;;;;;;;;18.00;59.00;;;;;;4952296;28;990;-70
2022/12/23 14:05:30;;;;;;;;;;;18.00;59.00;;;;;;4952707;28;1284;-70
2022/12/23 14:08:00;;;;;;;;;;;18.00;59.00;;;;;;4954936;28;1285;-70
2022/12/23 14:10:25;;;;;;;;;;;18.00;59.10;;;;;;4953937;28;1357;-70
2022/12/23 14:12:51;;;;;;;;;;;18.00;59.00;;;;;;4952924;28;1027;-70
2022/12/23 14:15:17;;;;;;;;;;;18.00;59.10;;;;;;4952872;28;1903;-70
2022/12/23 14:17:57;;;;;;;;;;;18.00;59.10;;;;;;4952176;28;908;-71
2022/12/23 14:20:25;;;;;;;;;;;18.00;59.10;;;;;;4951374;28;1309;-70
2022/12/23 14:22:51;;;;;;;;;;;18.00;59.10;;;;;;4954688;28;804;-70
2022/12/23 14:25:16;;;;;;;;;;;18.00;59.10;;;;;;4956708;28;867;-70
2022/12/23 14:27:44;;;;;;;;;;;18.00;59.20;;;;;;4948546;28;977;-70
2022/12/23 14:30:12;;;;;;;;;;;18.00;59.10;;;;;;4953641;28;1388;-70
2022/12/23 14:32:46;;;;;;;;;;;18.00;59.10;;;;;;4949325;28;892;-70
2022/12/23 14:35:16;;;;;;;;;;;18.00;59.10;;;;;;4955350;28;1974;-71
2022/12/23 14:37:42;;;;;;;;;;;18.00;59.10;;;;;;4952541;28;858;-70
2022/12/23 14:40:26;;;;;;;;;;;18.00;59.10;;;;;;4950293;28;1394;-71
2022/12/23 14:43:12;;;;;;;;;;;18.00;59.10;;;;;;4951947;28;791;-70
2022/12/23 14:45:41;;;;;;;;;;;18.00;59.10;;;;;;4954449;28;1098;-71
2022/12/23 14:48:25;;;;;;;;;;;18.00;59.00;;;;;;4953928;28;880;-71
2022/12/23 14:50:57;;;;;;;;;;;18.00;59.00;;;;;;4949886;28;1266;-71
2022/12/23 14:53:26;;;;;;;;;;;18.00;59.00;;;;;;4952849;28;1906;-70
2022/12/23 14:56:06;;;;;;;;;;;18.00;59.00;;;;;;4947082;28;1035;-71
2022/12/23 14:58:55;;;;;;;;;;;18.00;59.00;;;;;;4952288;28;893;-70
2022/12/23 15:01:31;;;;;;;;;;;18.00;59.00;;;;;;4940946;28;1241;-70
2022/12/23 15:03:56;;;;;;;;;;;18.10;59.00;;;;;;4953760;28;1389;-70
2022/12/23 15:06:27;;;;;;;;;;;18.00;59.00;;;;;;4947817;28;975;-69